Time;durP1;ratioP1;P1;durP2;ratioP2;P2;SDS_P1;SDS_P2;PMS_P1;PMS_P2;Temp;Humidity;BMP_temperature;BMP_pressure;BME280_temperature;BME280_humidity;BME280_pressure;Samples;Min_cycle;Max_cycle;Signal;HPM_P1;HPM_P2
2022/09/12 00:04:12;;;;;;;1.73;1.23;;;26.00;58.60;;;;;;10431543;28;20045;-33
2022/09/12 00:09:15;;;;;;;1.42;1.08;;;26.40;58.90;;;;;;10428731;28;20053;-33
2022/09/12 00:14:19;;;;;;;1.20;1.00;;;25.90;58.60;;;;;;10429228;28;20061;-36
2022/09/12 00:19:21;;;;;;;1.10;1.00;;;26.00;58.70;;;;;;10429652;28;20069;-29
2022/09/12 00:24:23;;;;;;;1.88;1.00;;;25.90;58.60;;;;;;10430452;28;20127;-30
2022/09/12 00:29:26;;;;;;;1.92;1.10;;;26.20;58.90;;;;;;10432511;28;20094;-33
2022/09/12 00:34:28;;;;;;;2.00;1.15;;;25.90;58.70;;;;;;10428495;28;20242;-33
2022/09/12 00:39:29;;;;;;;1.65;1.20;;;25.80;59.30;;;;;;10428004;28;20049;-33
2022/09/12 00:44:50;;;;;;;5.40;1.63;;;25.80;58.70;;;;;;10428278;28;20055;-32
2022/09/12 00:49:57;;;;;;;3.13;1.97;;;25.80;58.70;;;;;;10429736;28;20370;-31
2022/09/12 00:55:05;;;;;;;1.75;1.20;;;25.80;58.80;;;;;;10424253;28;20641;-32
2022/09/12 01:00:14;;;;;;;2.05;1.23;;;25.70;58.70;;;;;;10428976;28;20128;-37
2022/09/12 01:05:17;;;;;;;1.40;1.05;;;25.70;58.70;;;;;;10413754;28;20143;-40
2022/09/12 01:10:20;;;;;;;2.22;1.20;;;25.70;58.70;;;;;;10426134;28;20123;-34
2022/09/12 01:15:23;;;;;;;2.38;1.13;;;25.60;58.70;;;;;;10425468;28;20047;-37
2022/09/12 01:20:54;;;;;;;2.42;1.10;;;25.60;58.70;;;;;;10429167;28;20084;-37
2022/09/12 01:26:09;;;;;;;1.23;1.13;;;25.60;58.80;;;;;;10427278;28;20045;-39
2022/09/12 01:31:18;;;;;;;1.50;1.10;;;25.50;58.80;;;;;;10430994;28;20495;-38
2022/09/12 01:36:37;;;;;;;1.35;1.25;;;25.60;58.90;;;;;;10427708;28;20043;-38
2022/09/12 01:41:48;;;;;;;1.15;1.05;;;25.50;58.90;;;;;;10430653;28;20045;-34
2022/09/12 01:46:56;;;;;;;1.25;1.13;;;25.50;58.90;;;;;;10428311;28;20148;-38
2022/09/12 01:52:04;;;;;;;1.45;0.90;;;25.50;58.90;;;;;;10429711;28;20088;-33
2022/09/12 01:57:13;;;;;;;1.25;1.13;;;25.40;58.90;;;;;;10430625;28;20061;-36
2022/09/12 02:02:21;;;;;;;2.08;1.10;;;25.40;58.90;;;;;;10427284;28;20071;-37
2022/09/12 02:07:28;;;;;;;1.83;1.30;;;25.80;59.40;;;;;;10431072;28;20102;-33
2022/09/12 02:12:40;;;;;;;1.35;1.23;;;25.40;58.90;;;;;;10430155;28;20059;-37
2022/09/12 02:17:46;;;;;;;1.40;1.10;;;25.40;59.60;;;;;;10430457;28;20476;-37
2022/09/12 02:22:51;;;;;;;2.00;1.05;;;25.40;59.00;;;;;;10430753;28;20073;-33
2022/09/12 02:27:57;;;;;;;2.58;1.38;;;25.60;59.20;;;;;;10428579;28;20076;-39
2022/09/12 02:33:09;;;;;;;2.33;1.55;;;25.40;59.20;;;;;;10425786;28;20199;-36
2022/09/12 02:38:15;;;;;;;1.83;1.20;;;25.30;59.10;;;;;;10431684;28;20532;-32
2022/09/12 02:43:17;;;;;;;2.05;1.83;;;25.40;59.20;;;;;;10427826;28;20098;-34
2022/09/12 02:48:22;;;;;;;;;;;25.30;59.10;;;;;;10428337;28;20149;-34
2022/09/12 02:53:25;;;;;;;1.17;1.08;;;25.50;59.30;;;;;;10427561;28;20421;-35
2022/09/12 02:58:31;;;;;;;1.40;1.20;;;25.20;59.20;;;;;;10425904;28;20136;-33
2022/09/12 03:03:50;;;;;;;1.92;1.50;;;25.20;59.20;;;;;;10429402;28;20050;-33
2022/09/12 03:09:00;;;;;;;2.28;1.40;;;25.20;59.20;;;;;;10430763;28;20061;-32
2022/09/12 03:14:10;;;;;;;1.70;1.42;;;25.20;59.20;;;;;;10426682;28;20060;-30
2022/09/12 03:19:24;;;;;;;3.45;1.80;;;25.20;59.20;;;;;;10426382;28;20148;-34
2022/09/12 03:24:32;;;;;;;2.15;1.50;;;25.20;59.20;;;;;;10428660;28;20044;-34
2022/09/12 03:29:35;;;;;;;2.88;1.50;;;25.20;59.30;;;;;;10427252;28;20053;-32
2022/09/12 03:34:38;;;;;;;1.60;1.50;;;24.90;59.10;;;;;;10436297;28;20507;-33
2022/09/12 03:39:40;;;;;;;1.50;1.35;;;25.20;59.40;;;;;;10436064;28;20045;-32
2022/09/12 03:44:42;;;;;;;2.33;1.65;;;25.20;59.30;;;;;;10434038;28;20136;-33
2022/09/12 03:49:45;;;;;;;2.13;1.45;;;25.10;59.40;;;;;;10434447;28;20040;-33
2022/09/12 03:54:47;;;;;;;1.45;1.35;;;25.10;59.30;;;;;;10435575;28;20417;-30
2022/09/12 03:59:49;;;;;;;1.30;1.20;;;25.10;59.40;;;;;;10435462;28;20063;-33
2022/09/12 04:04:52;;;;;;;1.88;1.33;;;25.10;59.40;;;;;;10430856;28;20124;-28
2022/09/12 04:09:55;;;;;;;2.63;1.65;;;25.00;59.40;;;;;;10430373;28;20558;-36
2022/09/12 04:14:57;;;;;;;2.03;1.50;;;25.00;59.40;;;;;;10435131;28;20072;-31
2022/09/12 04:20:00;;;;;;;2.13;1.40;;;25.00;59.30;;;;;;10432526;28;20064;-35
2022/09/12 04:25:02;;;;;;;1.52;1.30;;;25.00;59.40;;;;;;10428215;28;20049;-31
2022/09/12 04:30:04;;;;;;;1.75;1.60;;;25.00;59.40;;;;;;10421951;28;20049;-33
2022/09/12 04:35:10;;;;;;;1.50;1.40;;;25.00;59.50;;;;;;10426037;28;20148;-33
2022/09/12 04:40:11;;;;;;;1.55;1.45;;;24.90;59.60;;;;;;10425474;28;20048;-32
2022/09/12 04:45:15;;;;;;;1.88;1.50;;;25.60;59.90;;;;;;10418948;28;20049;-40
2022/09/12 04:50:19;;;;;;;2.00;1.85;;;24.90;59.60;;;;;;10423968;28;20458;-32
2022/09/12 04:55:21;;;;;;;2.22;1.38;;;24.90;59.50;;;;;;10424482;28;20128;-35
2022/09/12 05:00:23;;;;;;;1.63;1.40;;;24.90;59.50;;;;;;10425847;28;20165;-30
2022/09/12 05:05:26;;;;;;;2.13;1.45;;;24.90;59.50;;;;;;10430904;28;20581;-33
2022/09/12 05:10:28;;;;;;;1.38;1.27;;;24.80;59.60;;;;;;10426095;28;20057;-35
2022/09/12 05:15:30;;;;;;;1.48;1.38;;;24.90;59.70;;;;;;10430827;28;20135;-32
2022/09/12 05:20:34;;;;;;;;;;;24.70;59.50;;;;;;10428977;28;20140;-33
2022/09/12 05:25:35;;;;;;;1.90;1.55;;;24.70;59.60;;;;;;10429052;28;20011;-31
2022/09/12 05:30:37;;;;;;;;;;;24.80;59.60;;;;;;10433355;28;20123;-32
2022/09/12 05:35:41;;;;;;;1.60;1.50;;;24.70;59.70;;;;;;10429225;28;19935;-35
2022/09/12 05:40:42;;;;;;;2.22;1.40;;;24.70;59.80;;;;;;10427287;28;20127;-33
2022/09/12 05:45:44;;;;;;;;;;;24.90;60.00;;;;;;10424907;28;20498;-34
2022/09/12 05:50:47;;;;;;;2.05;1.73;;;24.70;59.80;;;;;;10432310;28;19924;-35
2022/09/12 05:55:49;;;;;;;2.50;1.60;;;24.80;59.90;;;;;;10428600;28;20067;-38
2022/09/12 06:00:51;;;;;;;3.47;2.03;;;24.80;59.70;;;;;;10429389;28;20568;-36
2022/09/12 06:05:54;;;;;;;1.92;1.48;;;24.80;59.80;;;;;;10428975;28;20060;-33
2022/09/12 06:10:59;;;;;;;3.33;2.50;;;24.70;59.70;;;;;;10428913;28;20055;-30
2022/09/12 06:16:07;;;;;;;5.63;2.40;;;24.70;59.60;;;;;;10431028;28;20131;-32
2022/09/12 06:21:11;;;;;;;14.85;2.70;;;24.70;59.70;;;;;;10430329;28;20036;-34
2022/09/12 06:26:16;;;;;;;6.28;2.50;;;24.70;59.70;;;;;;10432312;28;21792;-33
2022/09/12 06:31:20;;;;;;;4.30;2.75;;;24.90;59.50;;;;;;10427112;28;20049;-37
2022/09/12 06:36:25;;;;;;;3.90;2.00;;;24.90;59.50;;;;;;10427272;28;20128;-35
2022/09/12 06:41:28;;;;;;;2.58;2.15;;;24.90;59.50;;;;;;10426463;28;20053;-31
2022/09/12 06:46:30;;;;;;;5.63;2.20;;;24.90;59.40;;;;;;10429979;28;20133;-32
2022/09/12 06:51:35;;;;;;;3.80;2.35;;;25.80;60.00;;;;;;10424884;28;20053;-36
2022/09/12 06:56:36;;;;;;;4.43;2.60;;;25.30;59.70;;;;;;10430042;28;20053;-33
2022/09/12 07:01:38;;;;;;;;;;;24.90;59.50;;;;;;10428028;28;20076;-33
2022/09/12 07:06:43;;;;;;;5.22;2.95;;;24.90;59.50;;;;;;10427106;28;20110;-37
2022/09/12 07:11:46;;;;;;;7.30;3.30;;;24.90;59.40;;;;;;10434632;28;20069;-33
2022/09/12 07:16:48;;;;;;;4.75;3.10;;;24.90;59.30;;;;;;10434627;28;20045;-35
2022/09/12 07:21:51;;;;;;;;;;;24.90;59.10;;;;;;10436020;28;20132;-33
2022/09/12 07:26:52;;;;;;;4.60;2.80;;;25.00;59.10;;;;;;10433891;28;20067;-39
2022/09/12 07:31:54;;;;;;;4.38;2.80;;;25.00;59.10;;;;;;10434647;28;20398;-35
2022/09/12 07:36:57;;;;;;;5.82;2.92;;;25.00;59.10;;;;;;10431841;28;20492;-34
2022/09/12 07:42:00;;;;;;;5.57;3.75;;;25.40;59.40;;;;;;10435780;28;20045;-35
2022/09/12 07:47:02;;;;;;;3.22;2.60;;;24.90;59.40;;;;;;10432041;28;20037;-40
2022/09/12 07:52:05;;;;;;;4.18;2.38;;;25.00;59.10;;;;;;10437053;28;20103;-35
2022/09/12 07:57:07;;;;;;;4.20;2.40;;;25.00;59.10;;;;;;10433194;28;20091;-32
2022/09/12 08:02:12;;;;;;;3.13;2.40;;;24.90;59.10;;;;;;10435460;28;20052;-33
2022/09/12 08:07:17;;;;;;;6.95;4.50;;;25.40;59.30;;;;;;10430062;28;20056;-32
2022/09/12 08:12:19;;;;;;;9.65;4.70;;;25.00;59.10;;;;;;10430950;28;20060;-33
2022/09/12 08:17:21;;;;;;;10.07;5.63;;;24.90;59.10;;;;;;10434697;28;20129;-30
2022/09/12 08:22:24;;;;;;;5.40;2.50;;;24.90;59.10;;;;;;10429879;28;20049;-31
2022/09/12 08:27:26;;;;;;;2.85;2.20;;;25.00;59.10;;;;;;10434765;28;20072;-30
2022/09/12 08:32:28;;;;;;;;;;;25.00;59.10;;;;;;10434405;28;20420;-32
2022/09/12 08:37:31;;;;;;;3.17;2.58;;;24.50;59.50;;;;;;10433154;28;20015;-34
2022/09/12 08:42:47;;;;;;;5.55;3.55;;;24.40;61.00;;;;;;10432138;28;20136;-31
2022/09/12 08:47:49;;;;;;;4.07;2.78;;;24.80;62.90;;;;;;10430225;28;20049;-32
2022/09/12 08:52:57;;;;;;;7.90;4.22;;;24.30;60.70;;;;;;10430389;28;20132;-33
2022/09/12 08:58:00;;;;;;;4.10;2.40;;;24.10;59.90;;;;;;10433303;28;20921;-32
2022/09/12 09:03:27;;;;;;;3.75;2.53;;;24.70;59.60;;;;;;10428623;28;20077;-32
2022/09/12 09:08:42;;;;;;;3.08;2.20;;;24.40;60.20;;;;;;10432403;28;20138;-37
2022/09/12 09:19:20;;;;;;;2.63;2.17;;;24.00;60.20;;;;;;10431535;28;20044;-32
2022/09/12 09:24:27;;;;;;;4.75;2.30;;;24.90;59.00;;;;;;10434437;28;20056;-30
2022/09/12 09:29:35;;;;;;;2.63;2.10;;;24.20;61.20;;;;;;10431819;28;20530;-33
2022/09/12 09:34:40;;;;;;;4.03;2.00;;;24.60;60.10;;;;;;10431191;28;20077;-31
2022/09/12 09:39:54;;;;;;;3.92;3.30;;;25.10;58.40;;;;;;10432296;28;20886;-32
2022/09/12 09:44:59;;;;;;;3.15;2.33;;;23.50;61.20;;;;;;10430849;28;20136;-31
2022/09/12 09:50:02;;;;;;;3.30;1.90;;;24.60;60.00;;;;;;10431234;28;20079;-32
2022/09/12 09:55:06;;;;;;;2.03;1.73;;;25.00;58.70;;;;;;10431045;28;20041;-35
2022/09/12 10:00:30;;;;;;;2.15;1.95;;;25.20;58.40;;;;;;10431119;28;20063;-34
2022/09/12 10:05:35;;;;;;;1.90;1.50;;;25.50;57.80;;;;;;10428597;28;20059;-33
2022/09/12 10:10:53;;;;;;;3.20;1.50;;;25.80;57.10;;;;;;10431059;28;20501;-36
2022/09/12 10:16:02;;;;;;;2.53;1.70;;;25.70;56.80;;;;;;10430429;28;20208;-34
2022/09/12 10:21:18;;;;;;;2.75;1.38;;;25.40;57.90;;;;;;10431102;28;20139;-32
2022/09/12 10:26:21;;;;;;;5.38;2.33;;;25.00;58.30;;;;;;10428197;28;20528;-34
2022/09/12 10:31:27;;;;;;;1.40;1.20;;;24.70;56.40;;;;;;10431073;28;20049;-32
2022/09/12 10:36:37;;;;;;;2.15;1.95;;;25.50;57.40;;;;;;10429130;28;20110;-34
2022/09/12 10:41:41;;;;;;;5.95;3.10;;;25.60;58.30;;;;;;10429431;28;20049;-33
2022/09/12 10:46:43;;;;;;;6.18;2.28;;;26.10;57.70;;;;;;10439430;28;20498;-33
2022/09/12 10:51:45;;;;;;;3.38;2.00;;;24.80;58.20;;;;;;10439464;28;20478;-33
2022/09/12 10:57:13;;;;;;;4.47;2.20;;;24.90;56.10;;;;;;10439517;28;20515;-35
2022/09/12 11:02:27;;;;;;;3.38;2.40;;;24.30;57.30;;;;;;10404205;28;20601;-33
2022/09/12 11:07:44;;;;;;;6.30;2.85;;;23.90;60.90;;;;;;10436118;28;20060;-36
2022/09/12 11:12:53;;;;;;;4.72;2.22;;;23.30;63.00;;;;;;10437430;28;20490;-33
2022/09/12 11:18:00;;;;;;;5.88;2.72;;;24.10;61.70;;;;;;10436908;28;20143;-35
2022/09/12 11:23:43;;;;;;;4.57;2.08;;;25.00;56.90;;;;;;10436359;28;20518;-37
2022/09/12 11:28:55;;;;;;;4.15;1.83;;;23.90;59.20;;;;;;10411972;28;20044;-32
2022/09/12 11:34:00;;;;;;;3.65;2.38;;;24.10;63.00;;;;;;10438109;28;20135;-33
2022/09/12 11:39:08;;;;;;;3.55;2.17;;;24.30;60.70;;;;;;10437980;28;20482;-33
2022/09/12 11:44:18;;;;;;;4.18;2.30;;;24.40;58.60;;;;;;10436791;28;20569;-31
2022/09/12 11:49:28;;;;;;;3.05;1.80;;;24.70;60.00;;;;;;10439230;28;20045;-32
2022/09/12 11:54:35;;;;;;;15.20;4.75;;;25.50;57.10;;;;;;10437119;28;20060;-34
2022/09/12 11:59:45;;;;;;;4.60;2.20;;;24.70;57.80;;;;;;10436993;28;20565;-31
2022/09/12 12:04:59;;;;;;;3.80;2.42;;;24.90;57.90;;;;;;10437190;28;20127;-29
2022/09/12 12:10:01;;;;;;;4.35;2.90;;;25.80;53.70;;;;;;10398177;28;20401;-33
2022/09/12 12:15:05;;;;;;;4.47;1.38;;;25.40;57.90;;;;;;10397259;28;20088;-30
2022/09/12 12:20:15;;;;;;;2.97;2.22;;;25.70;57.90;;;;;;10397334;28;20525;-32
2022/09/12 12:25:38;;;;;;;2.05;1.83;;;25.40;57.50;;;;;;10395878;28;20107;-36
2022/09/12 12:31:04;;;;;;;3.28;2.10;;;25.20;56.10;;;;;;10395893;28;20128;-31
2022/09/12 12:36:08;;;;;;;4.32;2.50;;;25.50;54.20;;;;;;10392327;28;20418;-33
2022/09/12 12:41:42;;;;;;;4.57;3.10;;;25.80;56.60;;;;;;10396834;28;20839;-30
2022/09/12 12:47:14;;;;;;;4.25;2.70;;;26.10;55.90;;;;;;10394120;28;20053;-33
2022/09/12 12:52:18;;;;;;;2.08;1.10;;;26.20;56.50;;;;;;10395386;28;20967;-35
2022/09/12 12:57:33;;;;;;;1.42;1.30;;;27.70;55.30;;;;;;10395059;28;20053;-36
2022/09/12 13:02:40;;;;;;;2.33;1.30;;;26.90;55.30;;;;;;10393888;28;20045;-33
2022/09/12 13:07:44;;;;;;;3.30;1.25;;;27.50;53.10;;;;;;10395012;28;20057;-30
2022/09/12 13:12:47;;;;;;;2.55;1.48;;;27.50;53.50;;;;;;10395515;28;20128;-32
2022/09/12 13:17:51;;;;;;;1.38;1.10;;;27.50;52.10;;;;;;10393559;28;20061;-32
2022/09/12 13:22:53;;;;;;;4.38;1.70;;;27.90;53.70;;;;;;10395871;28;20081;-28
2022/09/12 13:28:14;;;;;;;1.55;1.25;;;27.40;53.80;;;;;;10394866;28;20517;-31
2022/09/12 13:33:27;;;;;;;7.15;1.92;;;27.70;53.50;;;;;;10395343;28;20060;-36
2022/09/12 13:38:40;;;;;;;3.17;1.00;;;28.00;52.10;;;;;;10393851;28;20045;-34
2022/09/12 13:43:45;;;;;;;4.47;1.10;;;27.90;53.20;;;;;;10397475;28;20474;-31
2022/09/12 13:48:49;;;;;;;2.38;0.90;;;28.00;52.80;;;;;;10398098;28;20053;-32
2022/09/12 13:53:52;;;;;;;2.95;1.73;;;27.90;53.30;;;;;;10395506;28;20462;-32
2022/09/12 13:58:56;;;;;;;6.60;4.93;;;27.90;53.60;;;;;;10395495;28;20494;-30
2022/09/12 14:09:23;;;;;;;12.80;9.33;;;28.30;51.90;;;;;;10392695;28;20061;-37
2022/09/12 14:14:31;;;;;;;15.85;10.45;;;28.30;52.90;;;;;;10392344;28;20131;-29
2022/09/12 14:19:35;;;;;;;8.63;6.97;;;28.90;52.10;;;;;;10391560;28;20605;-38
2022/09/12 14:24:38;;;;;;;12.93;10.90;;;28.60;51.20;;;;;;10385498;28;20407;-28
2022/09/12 14:29:42;;;;;;;12.35;10.02;;;28.60;52.40;;;;;;10390454;28;20041;-32
2022/09/12 14:35:19;;;;;;;12.48;9.40;;;28.40;52.70;;;;;;10379429;28;20514;-36
2022/09/12 14:40:23;;;;;;;4.95;3.13;;;28.90;49.50;;;;;;10380958;28;20049;-31
2022/09/12 14:45:29;;;;;;;5.75;5.15;;;28.70;49.60;;;;;;10390621;28;20045;-37
2022/09/12 14:50:36;;;;;;;9.27;5.07;;;29.00;51.90;;;;;;10391623;28;20141;-36
2022/09/12 14:55:45;;;;;;;8.82;6.82;;;29.10;52.30;;;;;;10387297;28;20154;-35
2022/09/12 15:00:56;;;;;;;5.05;4.30;;;29.10;51.60;;;;;;10387274;28;20057;-32
2022/09/12 15:05:59;;;;;;;;;;;29.10;51.40;;;;;;10392702;28;20061;-34
2022/09/12 15:11:01;;;;;;;5.53;4.13;;;30.00;51.20;;;;;;10393296;28;19925;-32
2022/09/12 15:16:03;;;;;;;5.00;4.25;;;29.50;51.40;;;;;;10393473;28;20152;-33
2022/09/12 15:21:10;;;;;;;4.88;2.95;;;29.30;52.20;;;;;;10392453;28;20561;-33
2022/09/12 15:26:14;;;;;;;3.38;2.85;;;29.60;51.00;;;;;;10393651;28;20140;-35
2022/09/12 15:31:23;;;;;;;4.18;3.00;;;29.40;50.60;;;;;;10396825;28;20561;-38
2022/09/12 15:36:27;;;;;;;3.85;2.38;;;29.10;51.20;;;;;;10398508;28;20144;-34
2022/09/12 15:41:32;;;;;;;3.35;1.85;;;29.50;50.70;;;;;;10396162;28;20187;-33
2022/09/12 15:46:34;;;;;;;3.88;2.33;;;29.20;48.80;;;;;;10397517;28;21320;-32
2022/09/12 15:51:37;;;;;;;3.00;2.25;;;29.00;52.40;;;;;;10399511;28;20060;-34
2022/09/12 15:56:39;;;;;;;6.18;1.90;;;28.90;52.10;;;;;;10401389;28;20057;-35
2022/09/12 16:01:41;;;;;;;5.28;2.17;;;29.00;52.30;;;;;;10396642;28;20126;-36
2022/09/12 16:06:44;;;;;;;2.50;1.98;;;29.10;52.10;;;;;;10393229;28;20136;-32
2022/09/12 16:11:46;;;;;;;2.63;1.90;;;29.10;52.00;;;;;;10394659;28;20489;-30
2022/09/12 16:16:53;;;;;;;4.07;2.30;;;29.10;52.20;;;;;;10397027;28;20079;-31
2022/09/12 16:21:56;;;;;;;4.78;2.50;;;29.10;52.20;;;;;;10396868;28;20049;-32
2022/09/12 16:26:58;;;;;;;3.40;1.92;;;29.20;50.00;;;;;;10397685;28;20136;-37
2022/09/12 16:32:00;;;;;;;7.47;2.70;;;29.00;52.60;;;;;;10391753;28;20049;-33
2022/09/12 16:37:04;;;;;;;5.13;2.38;;;28.90;52.50;;;;;;10393805;28;20482;-34
2022/09/12 16:42:06;;;;;;;11.30;3.10;;;28.90;52.80;;;;;;10393098;28;20771;-30
2022/09/12 16:47:08;;;;;;;6.10;2.50;;;28.80;52.70;;;;;;10392747;28;20049;-32
2022/09/12 16:52:15;;;;;;;12.30;2.90;;;28.80;52.80;;;;;;10392874;28;20053;-34
2022/09/12 16:57:17;;;;;;;8.95;2.80;;;28.90;53.10;;;;;;10390366;28;20076;-33
2022/09/12 17:02:19;;;;;;;6.45;2.92;;;28.80;53.00;;;;;;10395672;28;20046;-31
2022/09/12 17:07:22;;;;;;;3.25;2.25;;;28.80;53.10;;;;;;10395357;28;20046;-33
2022/09/12 17:12:24;;;;;;;4.45;2.45;;;28.80;53.20;;;;;;10393458;28;20136;-31
2022/09/12 17:17:26;;;;;;;7.85;3.40;;;28.80;53.30;;;;;;10393998;28;20049;-34
2022/09/12 17:22:29;;;;;;;7.03;2.42;;;28.80;53.30;;;;;;10387988;28;20049;-36
2022/09/12 17:27:31;;;;;;;7.32;3.45;;;28.60;53.20;;;;;;10386080;28;20191;-32
2022/09/12 17:32:33;;;;;;;8.32;3.45;;;28.80;53.50;;;;;;10385778;28;21007;-36
2022/09/12 17:37:36;;;;;;;8.43;3.22;;;28.80;53.60;;;;;;10383164;28;20720;-33
2022/09/12 17:42:39;;;;;;;7.10;3.40;;;28.80;53.70;;;;;;10384592;28;20140;-39
2022/09/12 17:47:41;;;;;;;7.88;2.50;;;28.80;53.60;;;;;;10390357;28;20041;-32
2022/09/12 17:52:45;;;;;;;5.95;2.83;;;29.90;54.50;;;;;;10390166;28;20079;-37
2022/09/12 17:57:47;;;;;;;3.67;2.35;;;28.70;53.80;;;;;;10393088;28;20104;-32
2022/09/12 18:02:50;;;;;;;5.63;2.08;;;28.90;53.90;;;;;;10390369;28;20085;-35
2022/09/12 18:07:53;;;;;;;5.97;1.98;;;28.30;53.70;;;;;;10387698;28;20435;-31
2022/09/12 18:12:55;;;;;;;3.08;1.80;;;28.50;54.00;;;;;;10381956;28;20053;-33
2022/09/12 18:17:57;;;;;;;5.63;1.67;;;28.50;54.10;;;;;;10389977;28;20114;-35
2022/09/12 18:23:00;;;;;;;2.67;1.73;;;28.40;54.10;;;;;;10388706;28;20187;-35
2022/09/12 18:28:05;;;;;;;2.90;1.60;;;28.40;54.20;;;;;;10385377;28;20037;-26
2022/09/12 18:33:07;;;;;;;4.35;2.30;;;28.30;54.20;;;;;;10384796;28;20056;-36
2022/09/12 18:38:10;;;;;;;3.85;1.73;;;28.30;54.20;;;;;;10387184;28;20486;-33
2022/09/12 18:43:13;;;;;;;3.53;1.85;;;28.30;54.40;;;;;;10388433;28;20045;-34
2022/09/12 18:48:15;;;;;;;2.25;1.60;;;28.30;54.40;;;;;;10375927;28;20520;-34
2022/09/12 18:53:18;;;;;;;2.88;1.70;;;28.20;54.40;;;;;;10377635;28;20426;-32
2022/09/12 18:58:20;;;;;;;2.42;1.60;;;28.20;54.50;;;;;;10372298;28;20123;-38
2022/09/12 19:03:22;;;;;;;2.95;1.85;;;28.20;54.70;;;;;;10385064;28;20542;-34
2022/09/12 19:08:25;;;;;;;2.78;1.52;;;28.10;54.80;;;;;;10396971;28;20136;-35
2022/09/12 19:13:27;;;;;;;8.50;1.70;;;28.10;54.90;;;;;;10400451;28;20136;-34
2022/09/12 19:18:32;;;;;;;5.57;1.58;;;28.00;55.00;;;;;;10397401;28;20148;-28
2022/09/12 19:23:36;;;;;;;3.13;1.70;;;28.00;55.00;;;;;;10397357;28;20041;-32
2022/09/12 19:28:38;;;;;;;4.00;1.85;;;28.00;55.10;;;;;;10394343;28;20525;-34
2022/09/12 19:33:40;;;;;;;4.57;1.60;;;27.90;55.20;;;;;;10399738;28;20045;-35
2022/09/12 19:38:44;;;;;;;4.85;1.83;;;27.90;55.20;;;;;;10399859;28;20130;-32
2022/09/12 19:43:46;;;;;;;3.90;2.17;;;27.90;55.40;;;;;;10400230;28;20461;-32
2022/09/12 19:48:48;;;;;;;4.22;1.73;;;27.60;55.30;;;;;;10400690;28;20152;-36
2022/09/12 19:53:52;;;;;;;4.07;1.90;;;27.80;55.60;;;;;;10399214;28;20085;-34
2022/09/12 19:58:53;;;;;;;8.40;2.08;;;27.80;56.30;;;;;;10392133;28;20192;-32
2022/09/12 20:03:55;;;;;;;6.32;1.88;;;27.70;55.80;;;;;;10394041;28;20037;-33
2022/09/12 20:08:58;;;;;;;3.70;2.03;;;28.00;56.00;;;;;;10425248;28;20112;-34
2022/09/12 20:14:00;;;;;;;2.35;2.00;;;27.70;56.00;;;;;;10434827;28;20120;-33
2022/09/12 20:19:05;;;;;;;2.65;1.80;;;27.70;56.00;;;;;;10425650;28;20780;-33
2022/09/12 20:24:11;;;;;;;4.13;2.00;;;27.80;56.10;;;;;;10433981;28;20052;-32
2022/09/12 20:29:13;;;;;;;4.95;2.00;;;28.10;56.40;;;;;;10433094;28;20049;-33
2022/09/12 20:34:17;;;;;;;3.80;2.20;;;27.60;56.20;;;;;;10432106;28;20144;-34
2022/09/12 20:39:22;;;;;;;3.75;2.00;;;27.60;56.20;;;;;;10438393;28;20098;-30
2022/09/12 20:44:24;;;;;;;6.60;1.95;;;27.60;56.30;;;;;;10439006;28;20091;-31
2022/09/12 20:49:27;;;;;;;2.08;1.77;;;28.10;56.70;;;;;;10412799;28;20426;-38
2022/09/12 20:54:30;;;;;;;3.03;1.80;;;27.60;56.50;;;;;;10411865;28;20084;-34
2022/09/12 20:59:34;;;;;;;2.17;1.85;;;27.50;56.40;;;;;;10425260;28;20171;-32
2022/09/12 21:04:35;;;;;;;3.67;1.92;;;27.80;56.70;;;;;;10408398;28;20058;-31
2022/09/12 21:09:38;;;;;;;2.38;1.75;;;27.50;56.50;;;;;;10424025;28;20045;-33
2022/09/12 21:14:40;;;;;;;3.55;1.95;;;27.40;56.50;;;;;;10408689;28;20084;-29
2022/09/12 21:19:42;;;;;;;3.60;1.77;;;27.40;56.60;;;;;;10425056;28;20534;-35
2022/09/12 21:24:45;;;;;;;2.42;1.60;;;27.40;56.70;;;;;;10409877;28;20045;-38
2022/09/12 21:29:47;;;;;;;3.78;1.92;;;27.40;56.70;;;;;;10419784;28;20051;-34
2022/09/12 21:34:49;;;;;;;2.65;1.60;;;28.30;57.40;;;;;;10413544;28;20053;-34
2022/09/12 21:39:52;;;;;;;4.28;1.90;;;27.60;57.00;;;;;;10426406;28;20051;-33
2022/09/12 21:44:54;;;;;;;2.95;1.50;;;27.30;56.80;;;;;;10411423;28;20096;-27
2022/09/12 21:49:57;;;;;;;2.45;1.90;;;27.30;56.90;;;;;;10405123;28;20139;-35
2022/09/12 21:55:03;;;;;;;1.95;1.63;;;27.30;57.00;;;;;;10418586;28;20064;-35
2022/09/12 22:00:06;;;;;;;2.92;1.58;;;27.20;57.00;;;;;;10424960;28;20123;-33
2022/09/12 22:05:09;;;;;;;3.33;1.90;;;27.20;57.00;;;;;;10409986;28;20042;-32
2022/09/12 22:10:12;;;;;;;2.00;1.75;;;27.20;57.10;;;;;;10410859;28;20036;-33
2022/09/12 22:15:14;;;;;;;3.90;2.13;;;27.20;57.20;;;;;;10413052;28;20565;-34
2022/09/12 22:20:16;;;;;;;2.65;1.58;;;27.10;57.20;;;;;;10430587;28;20049;-32
2022/09/12 22:25:23;;;;;;;2.00;1.60;;;27.20;57.30;;;;;;10427777;28;20076;-31
2022/09/12 22:30:26;;;;;;;2.90;1.80;;;27.10;57.30;;;;;;10409394;28;20042;-36
2022/09/12 22:35:28;;;;;;;2.40;1.80;;;27.10;57.40;;;;;;10421424;28;20056;-33
2022/09/12 22:40:32;;;;;;;2.03;1.60;;;27.50;57.70;;;;;;10419376;28;20048;-31
2022/09/12 22:45:34;;;;;;;2.05;1.40;;;27.00;57.40;;;;;;10419652;28;20132;-32
2022/09/12 22:50:35;;;;;;;2.63;1.50;;;27.00;57.50;;;;;;10427507;28;20142;-33
2022/09/12 22:55:39;;;;;;;4.03;1.90;;;27.00;57.60;;;;;;10427755;28;20088;-37
2022/09/12 23:00:46;;;;;;;3.58;1.90;;;27.00;57.60;;;;;;10402678;28;20107;-34
2022/09/12 23:05:48;;;;;;;1.73;1.40;;;27.00;57.60;;;;;;10410272;28;20056;-32
2022/09/12 23:10:59;;;;;;;2.78;1.70;;;26.90;57.70;;;;;;10418886;28;20072;-38
2022/09/12 23:16:02;;;;;;;3.10;1.65;;;26.90;57.70;;;;;;10413668;28;20140;-32
2022/09/12 23:21:06;;;;;;;2.33;1.90;;;26.80;57.70;;;;;;10431980;28;20740;-35
2022/09/12 23:26:12;;;;;;;1.95;1.75;;;26.80;57.80;;;;;;10409680;28;20102;-34
2022/09/12 23:31:14;;;;;;;2.83;1.90;;;26.80;57.80;;;;;;10423204;28;20049;-36
2022/09/12 23:36:16;;;;;;;2.42;1.70;;;26.80;57.80;;;;;;10421997;28;20048;-31
2022/09/12 23:41:19;;;;;;;3.90;1.65;;;26.90;58.00;;;;;;10415200;28;20053;-33
2022/09/12 23:46:22;;;;;;;1.85;1.67;;;26.80;58.60;;;;;;10422169;28;20080;-31
2022/09/12 23:51:23;;;;;;;2.78;1.98;;;26.90;58.20;;;;;;10419890;28;20716;-31
2022/09/12 23:56:27;;;;;;;2.55;1.73;;;26.70;58.10;;;;;;10435240;28;20191;-29
